Etusivu
METAR-TAF:

METAR-TAF

Lentoasemat :

Appleton Municipal Airport

Appleton, Minnesota, Yhdysvallat

Leveyspiiri: 45-13-39N, Pituuspiiri: 096-00-15W, korkeus merenpinnasta: 310 m

Tämänhetkinen sää

Tämä raportti tehtiin 17 minuuttia sitten, kello 20.31 UTC
tyyntä
Lämpötila -6°C
Kosteus 79%
Ilmanpaine 1025 hPa
Näkyvyys: 11.3 km
Hajanaisia pilviä 1700 ft:n korkeudessa
Pilvistä 2900 ft:n korkeudessa
heikkoa lumisadetta

METAR: KAQP 262031Z AUTO 00000KT 7SM -SN SCT017 OVC029 M06/M09 A3028 RMK AO2

Aika: 14:48 (20:48 UTC)


TAF: puuttuu

Säähavainnot ja -ennusteet yli 4000 lentoasemalta (METAR- ja TAF-raportit).

Käytössä olevat sääasemat on merkitty karttaan keltaisilla ja punaisilla pisteillä.

Aseta hiiri pisteen päälle nähdäksesi sääaseman nimen.

Klikkaa sitten nähdäksesi säähavainnot ja -ennusteet.

Kartan vaihtaminen: klikkaa mustalla rastilla varustettuja vihreitä pisteitä, niin voit zoomata sisään; viivalla varustettua vihreää pistettä, niin voit zoomata ulos tai vihreitä nuolia, niin pääset viereisille kartoille.


METAR-TAF: